sensor_id;sensor_type;location;lat;lon;timestamp;temperature;humidity
23685;DHT22;12020;51.384;6.908;2023-02-01T00:02:19;6.60;99.90
23685;DHT22;12020;51.384;6.908;2023-02-01T00:04:45;6.70;99.90
23685;DHT22;12020;51.384;6.908;2023-02-01T00:07:10;6.60;99.90
23685;DHT22;12020;51.384;6.908;2023-02-01T00:09:36;6.60;99.90
23685;DHT22;12020;51.384;6.908;2023-02-01T00:12:02;6.60;99.90
23685;DHT22;12020;51.384;6.908;2023-02-01T00:14:29;6.70;99.90
23685;DHT22;12020;51.384;6.908;2023-02-01T00:16:55;6.70;99.90
23685;DHT22;12020;51.384;6.908;2023-02-01T00:19:20;6.70;99.90
23685;DHT22;12020;51.384;6.908;2023-02-01T00:21:46;6.70;99.90
23685;DHT22;12020;51.384;6.908;2023-02-01T00:24:12;6.70;99.90
23685;DHT22;12020;51.384;6.908;2023-02-01T00:26:41;6.70;99.90
23685;DHT22;12020;51.384;6.908;2023-02-01T00:29:11;6.70;99.90
23685;DHT22;12020;51.384;6.908;2023-02-01T00:31:37;6.60;99.90
23685;DHT22;12020;51.384;6.908;2023-02-01T00:34:03;6.70;99.90
23685;DHT22;12020;51.384;6.908;2023-02-01T00:36:29;6.70;99.90
23685;DHT22;12020;51.384;6.908;2023-02-01T00:38:55;6.70;99.90
23685;DHT22;12020;51.384;6.908;2023-02-01T00:41:22;6.70;99.90
23685;DHT22;12020;51.384;6.908;2023-02-01T00:43:49;6.70;99.90
23685;DHT22;12020;51.384;6.908;2023-02-01T00:46:16;6.80;99.90
23685;DHT22;12020;51.384;6.908;2023-02-01T00:48:43;6.70;99.90
23685;DHT22;12020;51.384;6.908;2023-02-01T00:51:13;6.80;99.90
23685;DHT22;12020;51.384;6.908;2023-02-01T00:53:39;6.70;99.90
23685;DHT22;12020;51.384;6.908;2023-02-01T00:56:05;6.70;99.90
23685;DHT22;12020;51.384;6.908;2023-02-01T00:58:32;6.70;99.90
23685;DHT22;12020;51.384;6.908;2023-02-01T01:01:08;6.70;99.90
23685;DHT22;12020;51.384;6.908;2023-02-01T01:03:36;6.70;99.90
23685;DHT22;12020;51.384;6.908;2023-02-01T01:06:06;6.70;99.90
23685;DHT22;12020;51.384;6.908;2023-02-01T01:08:33;6.70;99.90
23685;DHT22;12020;51.384;6.908;2023-02-01T01:10:58;6.70;99.90
23685;DHT22;12020;51.384;6.908;2023-02-01T01:13:24;6.70;99.90
23685;DHT22;12020;51.384;6.908;2023-02-01T01:15:50;6.70;99.90
23685;DHT22;12020;51.384;6.908;2023-02-01T01:18:15;6.70;99.90
23685;DHT22;12020;51.384;6.908;2023-02-01T01:20:41;6.70;99.90
23685;DHT22;12020;51.384;6.908;2023-02-01T01:23:08;6.70;99.90
23685;DHT22;12020;51.384;6.908;2023-02-01T01:25:38;6.70;99.90
23685;DHT22;12020;51.384;6.908;2023-02-01T01:28:05;6.70;99.90
23685;DHT22;12020;51.384;6.908;2023-02-01T01:30:31;6.70;99.90
23685;DHT22;12020;51.384;6.908;2023-02-01T01:32:57;6.70;99.90
23685;DHT22;12020;51.384;6.908;2023-02-01T01:35:22;6.70;99.90
23685;DHT22;12020;51.384;6.908;2023-02-01T01:37:48;6.70;99.90
23685;DHT22;12020;51.384;6.908;2023-02-01T01:40:14;6.70;99.90
23685;DHT22;12020;51.384;6.908;2023-02-01T01:42:41;6.70;99.90
23685;DHT22;12020;51.384;6.908;2023-02-01T01:45:18;6.70;99.90
23685;DHT22;12020;51.384;6.908;2023-02-01T01:47:51;6.70;99.90
23685;DHT22;12020;51.384;6.908;2023-02-01T01:50:29;6.70;99.90
23685;DHT22;12020;51.384;6.908;2023-02-01T01:52:57;6.60;99.90
23685;DHT22;12020;51.384;6.908;2023-02-01T01:55:26;6.60;99.90
23685;DHT22;12020;51.384;6.908;2023-02-01T01:57:59;6.60;99.90
23685;DHT22;12020;51.384;6.908;2023-02-01T02:00:27;6.60;99.90
23685;DHT22;12020;51.384;6.908;2023-02-01T02:02:58;6.60;99.90
23685;DHT22;12020;51.384;6.908;2023-02-01T02:05:25;6.60;99.90
23685;DHT22;12020;51.384;6.908;2023-02-01T02:07:53;6.60;99.90
23685;DHT22;12020;51.384;6.908;2023-02-01T02:10:22;6.50;99.90
23685;DHT22;12020;51.384;6.908;2023-02-01T02:13:10;6.50;99.90
23685;DHT22;12020;51.384;6.908;2023-02-01T02:15:43;6.50;99.90
23685;DHT22;12020;51.384;6.908;2023-02-01T02:18:57;6.50;99.90
23685;DHT22;12020;51.384;6.908;2023-02-01T02:35:59;6.40;99.90
23685;DHT22;12020;51.384;6.908;2023-02-01T02:38:35;6.30;99.90
23685;DHT22;12020;51.384;6.908;2023-02-01T02:41:22;6.30;99.90
23685;DHT22;12020;51.384;6.908;2023-02-01T02:44:45;6.30;99.90
23685;DHT22;12020;51.384;6.908;2023-02-01T02:50:40;6.20;99.90
23685;DHT22;12020;51.384;6.908;2023-02-01T02:54:09;6.20;99.90
23685;DHT22;12020;51.384;6.908;2023-02-01T02:56:56;6.20;99.90
23685;DHT22;12020;51.384;6.908;2023-02-01T02:59:43;6.20;99.90
23685;DHT22;12020;51.384;6.908;2023-02-01T03:02:31;6.20;99.90
23685;DHT22;12020;51.384;6.908;2023-02-01T03:05:15;6.20;99.90
23685;DHT22;12020;51.384;6.908;2023-02-01T03:16:31;6.20;99.90
23685;DHT22;12020;51.384;6.908;2023-02-01T03:19:18;6.20;99.90
23685;DHT22;12020;51.384;6.908;2023-02-01T03:21:48;6.20;99.90
23685;DHT22;12020;51.384;6.908;2023-02-01T03:24:20;6.20;99.90
23685;DHT22;12020;51.384;6.908;2023-02-01T03:26:55;6.10;99.90
23685;DHT22;12020;51.384;6.908;2023-02-01T03:29:29;6.10;99.90
23685;DHT22;12020;51.384;6.908;2023-02-01T03:31:57;6.10;99.90
23685;DHT22;12020;51.384;6.908;2023-02-01T03:34:23;6.10;99.90
23685;DHT22;12020;51.384;6.908;2023-02-01T03:36:54;6.10;99.90
23685;DHT22;12020;51.384;6.908;2023-02-01T03:42:40;6.20;99.90
23685;DHT22;12020;51.384;6.908;2023-02-01T03:45:12;6.20;99.90
23685;DHT22;12020;51.384;6.908;2023-02-01T03:47:42;6.20;99.90
23685;DHT22;12020;51.384;6.908;2023-02-01T03:50:11;6.20;99.90
23685;DHT22;12020;51.384;6.908;2023-02-01T03:52:43;6.20;99.90
23685;DHT22;12020;51.384;6.908;2023-02-01T03:55:13;6.20;99.90
23685;DHT22;12020;51.384;6.908;2023-02-01T03:57:46;6.20;99.90
23685;DHT22;12020;51.384;6.908;2023-02-01T04:00:22;6.20;99.90
23685;DHT22;12020;51.384;6.908;2023-02-01T04:02:48;6.20;99.90
23685;DHT22;12020;51.384;6.908;2023-02-01T04:05:14;6.20;99.90
23685;DHT22;12020;51.384;6.908;2023-02-01T04:07:40;6.20;99.90
23685;DHT22;12020;51.384;6.908;2023-02-01T04:10:07;6.20;99.90
23685;DHT22;12020;51.384;6.908;2023-02-01T04:12:33;6.20;99.90
23685;DHT22;12020;51.384;6.908;2023-02-01T04:14:58;6.20;99.90
23685;DHT22;12020;51.384;6.908;2023-02-01T04:17:24;6.20;99.90
23685;DHT22;12020;51.384;6.908;2023-02-01T04:19:50;6.20;99.90
23685;DHT22;12020;51.384;6.908;2023-02-01T04:22:15;6.20;99.90
23685;DHT22;12020;51.384;6.908;2023-02-01T04:24:41;6.10;99.90
23685;DHT22;12020;51.384;6.908;2023-02-01T04:27:08;6.10;99.90
23685;DHT22;12020;51.384;6.908;2023-02-01T04:29:34;6.20;99.90
23685;DHT22;12020;51.384;6.908;2023-02-01T04:31:59;6.10;99.90
23685;DHT22;12020;51.384;6.908;2023-02-01T04:34:25;6.10;99.90
23685;DHT22;12020;51.384;6.908;2023-02-01T04:36:51;6.10;99.90
23685;DHT22;12020;51.384;6.908;2023-02-01T04:39:17;6.10;99.90
23685;DHT22;12020;51.384;6.908;2023-02-01T04:41:43;6.10;99.90
23685;DHT22;12020;51.384;6.908;2023-02-01T04:44:20;6.10;99.90
23685;DHT22;12020;51.384;6.908;2023-02-01T04:46:46;6.10;99.90
23685;DHT22;12020;51.384;6.908;2023-02-01T04:49:15;6.10;99.90
23685;DHT22;12020;51.384;6.908;2023-02-01T04:51:41;6.10;99.90
23685;DHT22;12020;51.384;6.908;2023-02-01T04:54:07;6.10;99.90
23685;DHT22;12020;51.384;6.908;2023-02-01T04:56:33;6.20;99.90
23685;DHT22;12020;51.384;6.908;2023-02-01T04:59:00;6.10;99.90
23685;DHT22;12020;51.384;6.908;2023-02-01T05:01:29;6.10;99.90
23685;DHT22;12020;51.384;6.908;2023-02-01T05:03:54;6.20;99.90
23685;DHT22;12020;51.384;6.908;2023-02-01T05:06:20;6.20;99.90
23685;DHT22;12020;51.384;6.908;2023-02-01T05:08:46;6.10;99.90
23685;DHT22;12020;51.384;6.908;2023-02-01T05:11:12;6.20;99.90
23685;DHT22;12020;51.384;6.908;2023-02-01T05:13:58;6.20;99.90
23685;DHT22;12020;51.384;6.908;2023-02-01T05:16:24;6.10;99.90
23685;DHT22;12020;51.384;6.908;2023-02-01T05:18:50;6.10;99.90
23685;DHT22;12020;51.384;6.908;2023-02-01T05:21:16;6.10;99.90
23685;DHT22;12020;51.384;6.908;2023-02-01T05:23:42;6.10;99.90
23685;DHT22;12020;51.384;6.908;2023-02-01T05:26:26;6.10;99.90
23685;DHT22;12020;51.384;6.908;2023-02-01T05:28:51;6.10;99.90
23685;DHT22;12020;51.384;6.908;2023-02-01T05:31:17;6.10;99.90
23685;DHT22;12020;51.384;6.908;2023-02-01T05:33:43;6.10;99.90
23685;DHT22;12020;51.384;6.908;2023-02-01T05:36:09;6.10;99.90
23685;DHT22;12020;51.384;6.908;2023-02-01T05:38:35;6.10;99.90
23685;DHT22;12020;51.384;6.908;2023-02-01T05:41:01;6.00;99.90
23685;DHT22;12020;51.384;6.908;2023-02-01T05:43:27;6.00;99.90
23685;DHT22;12020;51.384;6.908;2023-02-01T05:45:52;6.00;99.90
23685;DHT22;12020;51.384;6.908;2023-02-01T05:48:18;6.00;99.90
23685;DHT22;12020;51.384;6.908;2023-02-01T05:50:44;6.00;99.90
23685;DHT22;12020;51.384;6.908;2023-02-01T05:53:10;6.00;99.90
23685;DHT22;12020;51.384;6.908;2023-02-01T05:55:37;6.00;99.90
23685;DHT22;12020;51.384;6.908;2023-02-01T05:58:04;6.00;99.90
23685;DHT22;12020;51.384;6.908;2023-02-01T06:00:31;5.90;99.90
23685;DHT22;12020;51.384;6.908;2023-02-01T06:02:57;5.90;99.90
23685;DHT22;12020;51.384;6.908;2023-02-01T06:05:24;5.90;99.90
23685;DHT22;12020;51.384;6.908;2023-02-01T06:07:50;5.90;99.90
23685;DHT22;12020;51.384;6.908;2023-02-01T06:10:19;5.90;99.90
23685;DHT22;12020;51.384;6.908;2023-02-01T06:12:47;5.80;99.90
23685;DHT22;12020;51.384;6.908;2023-02-01T06:15:14;5.90;99.90
23685;DHT22;12020;51.384;6.908;2023-02-01T06:17:45;6.00;99.90
23685;DHT22;12020;51.384;6.908;2023-02-01T06:20:12;6.00;99.90
23685;DHT22;12020;51.384;6.908;2023-02-01T06:22:41;5.90;99.90
23685;DHT22;12020;51.384;6.908;2023-02-01T06:25:09;6.00;99.90
23685;DHT22;12020;51.384;6.908;2023-02-01T06:27:35;6.20;99.90
23685;DHT22;12020;51.384;6.908;2023-02-01T06:30:02;6.30;99.90
23685;DHT22;12020;51.384;6.908;2023-02-01T06:32:29;6.20;99.90
23685;DHT22;12020;51.384;6.908;2023-02-01T06:34:54;6.20;99.90
23685;DHT22;12020;51.384;6.908;2023-02-01T06:37:24;6.10;99.90
23685;DHT22;12020;51.384;6.908;2023-02-01T06:39:54;6.10;99.90
23685;DHT22;12020;51.384;6.908;2023-02-01T06:42:20;6.10;99.90
23685;DHT22;12020;51.384;6.908;2023-02-01T06:44:49;6.10;99.90
23685;DHT22;12020;51.384;6.908;2023-02-01T06:47:15;6.10;99.90
23685;DHT22;12020;51.384;6.908;2023-02-01T06:49:40;6.20;99.90
23685;DHT22;12020;51.384;6.908;2023-02-01T06:52:06;6.10;99.90
23685;DHT22;12020;51.384;6.908;2023-02-01T06:54:31;6.10;99.90
23685;DHT22;12020;51.384;6.908;2023-02-01T06:57:00;6.10;99.90
23685;DHT22;12020;51.384;6.908;2023-02-01T06:59:25;6.10;99.90
23685;DHT22;12020;51.384;6.908;2023-02-01T07:01:51;6.10;99.90
23685;DHT22;12020;51.384;6.908;2023-02-01T07:04:17;6.20;99.90
23685;DHT22;12020;51.384;6.908;2023-02-01T07:06:42;6.20;99.90
23685;DHT22;12020;51.384;6.908;2023-02-01T07:09:09;6.20;99.90
23685;DHT22;12020;51.384;6.908;2023-02-01T07:11:35;6.10;99.90
23685;DHT22;12020;51.384;6.908;2023-02-01T07:14:02;6.20;99.90
23685;DHT22;12020;51.384;6.908;2023-02-01T07:16:28;6.20;99.90
23685;DHT22;12020;51.384;6.908;2023-02-01T07:18:55;6.20;99.90
23685;DHT22;12020;51.384;6.908;2023-02-01T07:21:22;6.20;99.90
23685;DHT22;12020;51.384;6.908;2023-02-01T07:23:49;6.20;99.90
23685;DHT22;12020;51.384;6.908;2023-02-01T07:26:19;6.20;99.90
23685;DHT22;12020;51.384;6.908;2023-02-01T07:28:45;6.20;99.90
23685;DHT22;12020;51.384;6.908;2023-02-01T07:31:14;6.30;99.90
23685;DHT22;12020;51.384;6.908;2023-02-01T07:33:50;6.30;99.90
23685;DHT22;12020;51.384;6.908;2023-02-01T07:36:21;6.30;99.90
23685;DHT22;12020;51.384;6.908;2023-02-01T07:38:47;6.30;99.90
23685;DHT22;12020;51.384;6.908;2023-02-01T07:41:14;6.30;99.90
23685;DHT22;12020;51.384;6.908;2023-02-01T07:43:40;6.30;99.90
23685;DHT22;12020;51.384;6.908;2023-02-01T07:46:06;6.30;99.90
23685;DHT22;12020;51.384;6.908;2023-02-01T07:48:33;6.30;99.90
23685;DHT22;12020;51.384;6.908;2023-02-01T07:51:10;6.30;99.90
23685;DHT22;12020;51.384;6.908;2023-02-01T07:53:36;6.40;99.90
23685;DHT22;12020;51.384;6.908;2023-02-01T07:56:03;6.30;99.90
23685;DHT22;12020;51.384;6.908;2023-02-01T07:58:29;6.40;99.90
23685;DHT22;12020;51.384;6.908;2023-02-01T08:00:55;6.40;99.90
23685;DHT22;12020;51.384;6.908;2023-02-01T08:03:41;6.40;99.90
23685;DHT22;12020;51.384;6.908;2023-02-01T08:06:07;6.40;99.90
23685;DHT22;12020;51.384;6.908;2023-02-01T08:08:33;6.40;99.90
23685;DHT22;12020;51.384;6.908;2023-02-01T08:11:03;6.50;99.90
23685;DHT22;12020;51.384;6.908;2023-02-01T08:13:29;6.50;99.90
23685;DHT22;12020;51.384;6.908;2023-02-01T08:15:59;6.50;99.90
23685;DHT22;12020;51.384;6.908;2023-02-01T08:18:25;6.50;99.90
23685;DHT22;12020;51.384;6.908;2023-02-01T08:20:51;6.50;99.90
23685;DHT22;12020;51.384;6.908;2023-02-01T08:23:16;6.50;99.90
23685;DHT22;12020;51.384;6.908;2023-02-01T08:25:43;6.50;99.90
23685;DHT22;12020;51.384;6.908;2023-02-01T08:28:10;6.50;99.90
23685;DHT22;12020;51.384;6.908;2023-02-01T08:30:39;6.50;99.90
23685;DHT22;12020;51.384;6.908;2023-02-01T08:33:07;6.50;99.90
23685;DHT22;12020;51.384;6.908;2023-02-01T08:35:35;6.60;99.90
23685;DHT22;12020;51.384;6.908;2023-02-01T08:38:01;6.60;99.90
23685;DHT22;12020;51.384;6.908;2023-02-01T08:40:30;6.60;99.90
23685;DHT22;12020;51.384;6.908;2023-02-01T08:42:56;6.60;99.90
23685;DHT22;12020;51.384;6.908;2023-02-01T08:45:28;6.60;99.90
23685;DHT22;12020;51.384;6.908;2023-02-01T08:47:56;6.60;99.90
23685;DHT22;12020;51.384;6.908;2023-02-01T08:50:22;6.60;99.90
23685;DHT22;12020;51.384;6.908;2023-02-01T08:52:48;6.60;99.90
23685;DHT22;12020;51.384;6.908;2023-02-01T08:55:15;6.60;99.90
23685;DHT22;12020;51.384;6.908;2023-02-01T08:57:41;6.70;99.90
23685;DHT22;12020;51.384;6.908;2023-02-01T09:00:09;6.60;99.90
23685;DHT22;12020;51.384;6.908;2023-02-01T09:02:36;6.60;99.90
23685;DHT22;12020;51.384;6.908;2023-02-01T09:05:02;6.60;99.90
23685;DHT22;12020;51.384;6.908;2023-02-01T09:07:28;6.60;99.90
23685;DHT22;12020;51.384;6.908;2023-02-01T09:09:53;6.70;99.90
23685;DHT22;12020;51.384;6.908;2023-02-01T09:12:22;6.70;99.90
23685;DHT22;12020;51.384;6.908;2023-02-01T09:14:48;6.70;99.90
23685;DHT22;12020;51.384;6.908;2023-02-01T09:17:14;6.70;99.90
23685;DHT22;12020;51.384;6.908;2023-02-01T09:19:39;6.70;99.90
23685;DHT22;12020;51.384;6.908;2023-02-01T09:22:05;6.70;99.90
23685;DHT22;12020;51.384;6.908;2023-02-01T09:24:31;6.60;99.90
23685;DHT22;12020;51.384;6.908;2023-02-01T09:26:57;6.60;99.90
23685;DHT22;12020;51.384;6.908;2023-02-01T09:29:24;6.60;99.90
23685;DHT22;12020;51.384;6.908;2023-02-01T09:31:49;6.60;99.90
23685;DHT22;12020;51.384;6.908;2023-02-01T09:34:15;6.60;99.90
23685;DHT22;12020;51.384;6.908;2023-02-01T09:36:41;6.60;99.90
23685;DHT22;12020;51.384;6.908;2023-02-01T09:39:06;6.60;99.90
23685;DHT22;12020;51.384;6.908;2023-02-01T09:44:54;6.60;99.90
23685;DHT22;12020;51.384;6.908;2023-02-01T09:47:24;6.70;99.90
23685;DHT22;12020;51.384;6.908;2023-02-01T09:52:22;6.70;99.90
23685;DHT22;12020;51.384;6.908;2023-02-01T09:54:56;6.70;99.90
23685;DHT22;12020;51.384;6.908;2023-02-01T10:02:47;6.80;99.90
23685;DHT22;12020;51.384;6.908;2023-02-01T10:05:15;6.80;99.90
23685;DHT22;12020;51.384;6.908;2023-02-01T10:10:47;6.90;99.90
23685;DHT22;12020;51.384;6.908;2023-02-01T10:24:02;7.00;99.90
23685;DHT22;12020;51.384;6.908;2023-02-01T10:26:34;7.10;99.90
23685;DHT22;12020;51.384;6.908;2023-02-01T10:29:04;7.10;99.90
23685;DHT22;12020;51.384;6.908;2023-02-01T10:31:38;7.10;99.90
23685;DHT22;12020;51.384;6.908;2023-02-01T10:34:27;7.10;99.90
23685;DHT22;12020;51.384;6.908;2023-02-01T10:37:00;7.20;99.90
23685;DHT22;12020;51.384;6.908;2023-02-01T10:39:26;7.20;99.90
23685;DHT22;12020;51.384;6.908;2023-02-01T10:41:54;7.20;99.90
23685;DHT22;12020;51.384;6.908;2023-02-01T10:44:27;7.20;99.90
23685;DHT22;12020;51.384;6.908;2023-02-01T10:46:54;7.20;99.90
23685;DHT22;12020;51.384;6.908;2023-02-01T10:49:33;7.20;99.90
23685;DHT22;12020;51.384;6.908;2023-02-01T10:52:39;7.20;99.90
23685;DHT22;12020;51.384;6.908;2023-02-01T10:55:40;7.30;99.90
23685;DHT22;12020;51.384;6.908;2023-02-01T10:58:15;7.30;99.90
23685;DHT22;12020;51.384;6.908;2023-02-01T11:00:58;7.30;99.90
23685;DHT22;12020;51.384;6.908;2023-02-01T11:03:41;7.30;99.90
23685;DHT22;12020;51.384;6.908;2023-02-01T11:08:53;7.30;99.90
23685;DHT22;12020;51.384;6.908;2023-02-01T11:11:20;7.30;99.90
23685;DHT22;12020;51.384;6.908;2023-02-01T11:13:53;7.30;99.90
23685;DHT22;12020;51.384;6.908;2023-02-01T11:16:19;7.30;99.90
23685;DHT22;12020;51.384;6.908;2023-02-01T11:18:45;7.40;99.90
23685;DHT22;12020;51.384;6.908;2023-02-01T11:21:18;7.40;99.90
23685;DHT22;12020;51.384;6.908;2023-02-01T11:23:44;7.50;99.90
23685;DHT22;12020;51.384;6.908;2023-02-01T11:26:25;7.50;99.90
23685;DHT22;12020;51.384;6.908;2023-02-01T11:28:56;7.50;99.90
23685;DHT22;12020;51.384;6.908;2023-02-01T11:31:22;7.50;99.90
23685;DHT22;12020;51.384;6.908;2023-02-01T11:33:52;7.50;99.90
23685;DHT22;12020;51.384;6.908;2023-02-01T11:36:24;7.50;99.90
23685;DHT22;12020;51.384;6.908;2023-02-01T11:41:34;7.50;99.90
23685;DHT22;12020;51.384;6.908;2023-02-01T11:44:21;7.50;99.90
23685;DHT22;12020;51.384;6.908;2023-02-01T11:46:47;7.50;99.90
23685;DHT22;12020;51.384;6.908;2023-02-01T11:49:20;7.50;99.90
23685;DHT22;12020;51.384;6.908;2023-02-01T12:03:31;7.50;99.90
23685;DHT22;12020;51.384;6.908;2023-02-01T12:06:35;7.50;99.90
23685;DHT22;12020;51.384;6.908;2023-02-01T12:14:24;7.40;99.90
23685;DHT22;12020;51.384;6.908;2023-02-01T12:17:34;7.40;99.90
23685;DHT22;12020;51.384;6.908;2023-02-01T12:39:42;7.50;99.90
23685;DHT22;12020;51.384;6.908;2023-02-01T12:45:36;7.50;99.90
23685;DHT22;12020;51.384;6.908;2023-02-01T12:50:53;7.60;99.90
23685;DHT22;12020;51.384;6.908;2023-02-01T12:54:03;7.60;99.90
23685;DHT22;12020;51.384;6.908;2023-02-01T12:56:38;7.60;99.90
23685;DHT22;12020;51.384;6.908;2023-02-01T13:01:54;7.60;99.90
23685;DHT22;12020;51.384;6.908;2023-02-01T13:09:55;7.60;99.90
23685;DHT22;12020;51.384;6.908;2023-02-01T13:12:28;7.60;99.90
23685;DHT22;12020;51.384;6.908;2023-02-01T13:15:00;7.60;99.90
23685;DHT22;12020;51.384;6.908;2023-02-01T13:17:30;7.70;99.90
23685;DHT22;12020;51.384;6.908;2023-02-01T13:22:48;7.70;99.90
23685;DHT22;12020;51.384;6.908;2023-02-01T13:43:00;7.60;99.90
23685;DHT22;12020;51.384;6.908;2023-02-01T13:45:30;7.70;99.90
23685;DHT22;12020;51.384;6.908;2023-02-01T13:47:59;7.70;99.90
23685;DHT22;12020;51.384;6.908;2023-02-01T13:50:28;7.80;99.90
23685;DHT22;12020;51.384;6.908;2023-02-01T13:55:39;7.80;99.90
23685;DHT22;12020;51.384;6.908;2023-02-01T13:58:31;7.80;99.90
23685;DHT22;12020;51.384;6.908;2023-02-01T14:03:55;7.90;99.90
23685;DHT22;12020;51.384;6.908;2023-02-01T14:19:33;8.00;99.90
23685;DHT22;12020;51.384;6.908;2023-02-01T14:22:30;8.00;99.90
23685;DHT22;12020;51.384;6.908;2023-02-01T14:24:56;8.00;99.90
23685;DHT22;12020;51.384;6.908;2023-02-01T14:27:34;8.10;99.90
23685;DHT22;12020;51.384;6.908;2023-02-01T14:30:05;8.10;99.90
23685;DHT22;12020;51.384;6.908;2023-02-01T14:32:37;8.10;99.90
23685;DHT22;12020;51.384;6.908;2023-02-01T14:35:30;8.10;99.90
23685;DHT22;12020;51.384;6.908;2023-02-01T14:38:00;8.10;99.90
23685;DHT22;12020;51.384;6.908;2023-02-01T14:40:30;8.10;99.90
23685;DHT22;12020;51.384;6.908;2023-02-01T14:42:56;8.20;99.90
23685;DHT22;12020;51.384;6.908;2023-02-01T14:47:54;8.20;99.90
23685;DHT22;12020;51.384;6.908;2023-02-01T14:53:31;8.20;99.90
23685;DHT22;12020;51.384;6.908;2023-02-01T14:59:12;8.30;99.90
23685;DHT22;12020;51.384;6.908;2023-02-01T15:01:50;8.30;99.90
23685;DHT22;12020;51.384;6.908;2023-02-01T15:04:24;8.30;99.90
23685;DHT22;12020;51.384;6.908;2023-02-01T15:07:05;8.20;99.90
23685;DHT22;12020;51.384;6.908;2023-02-01T15:09:44;8.20;99.90
23685;DHT22;12020;51.384;6.908;2023-02-01T15:12:25;8.20;99.90
23685;DHT22;12020;51.384;6.908;2023-02-01T15:15:19;8.20;99.90
23685;DHT22;12020;51.384;6.908;2023-02-01T15:17:56;8.20;99.90
23685;DHT22;12020;51.384;6.908;2023-02-01T15:20:39;8.20;99.90
23685;DHT22;12020;51.384;6.908;2023-02-01T15:23:16;8.30;99.90
23685;DHT22;12020;51.384;6.908;2023-02-01T15:25:46;8.30;99.90
23685;DHT22;12020;51.384;6.908;2023-02-01T15:28:14;8.30;99.90
23685;DHT22;12020;51.384;6.908;2023-02-01T15:30:52;8.30;99.90
23685;DHT22;12020;51.384;6.908;2023-02-01T15:33:26;8.30;99.90
23685;DHT22;12020;51.384;6.908;2023-02-01T15:36:07;8.30;99.90
23685;DHT22;12020;51.384;6.908;2023-02-01T15:38:44;8.20;99.90
23685;DHT22;12020;51.384;6.908;2023-02-01T15:41:21;8.30;99.90
23685;DHT22;12020;51.384;6.908;2023-02-01T15:44:57;8.20;99.90
23685;DHT22;12020;51.384;6.908;2023-02-01T15:47:13;8.20;99.90
23685;DHT22;12020;51.384;6.908;2023-02-01T15:50:02;8.30;99.90
23685;DHT22;12020;51.384;6.908;2023-02-01T15:52:37;8.30;99.90
23685;DHT22;12020;51.384;6.908;2023-02-01T15:55:22;8.30;99.90
23685;DHT22;12020;51.384;6.908;2023-02-01T15:57:51;8.20;99.90
23685;DHT22;12020;51.384;6.908;2023-02-01T16:00:27;8.30;99.90
23685;DHT22;12020;51.384;6.908;2023-02-01T16:03:05;8.20;99.90
23685;DHT22;12020;51.384;6.908;2023-02-01T16:06:11;8.20;99.90
23685;DHT22;12020;51.384;6.908;2023-02-01T16:08:49;8.20;99.90
23685;DHT22;12020;51.384;6.908;2023-02-01T16:13:54;8.20;99.90
23685;DHT22;12020;51.384;6.908;2023-02-01T16:16:21;8.20;99.90
23685;DHT22;12020;51.384;6.908;2023-02-01T16:18:52;8.30;99.90
23685;DHT22;12020;51.384;6.908;2023-02-01T16:21:19;8.30;99.90
23685;DHT22;12020;51.384;6.908;2023-02-01T16:23:49;8.30;99.90
23685;DHT22;12020;51.384;6.908;2023-02-01T16:26:19;8.30;99.90
23685;DHT22;12020;51.384;6.908;2023-02-01T16:28:52;8.30;99.90
23685;DHT22;12020;51.384;6.908;2023-02-01T16:31:32;8.30;99.90
23685;DHT22;12020;51.384;6.908;2023-02-01T16:33:59;8.30;99.90
23685;DHT22;12020;51.384;6.908;2023-02-01T16:36:59;8.30;99.90
23685;DHT22;12020;51.384;6.908;2023-02-01T16:39:27;8.20;99.90
23685;DHT22;12020;51.384;6.908;2023-02-01T16:42:00;8.20;99.90
23685;DHT22;12020;51.384;6.908;2023-02-01T16:44:28;8.20;99.90
23685;DHT22;12020;51.384;6.908;2023-02-01T16:47:02;8.20;99.90
23685;DHT22;12020;51.384;6.908;2023-02-01T16:49:35;8.20;99.90
23685;DHT22;12020;51.384;6.908;2023-02-01T16:54:51;8.10;99.90
23685;DHT22;12020;51.384;6.908;2023-02-01T16:57:26;8.10;99.90
23685;DHT22;12020;51.384;6.908;2023-02-01T16:59:56;8.10;99.90
23685;DHT22;12020;51.384;6.908;2023-02-01T17:02:25;8.20;99.90
23685;DHT22;12020;51.384;6.908;2023-02-01T17:04:52;8.20;99.90
23685;DHT22;12020;51.384;6.908;2023-02-01T17:07:19;8.10;99.90
23685;DHT22;12020;51.384;6.908;2023-02-01T17:09:47;8.20;99.90
23685;DHT22;12020;51.384;6.908;2023-02-01T17:12:27;8.20;99.90
23685;DHT22;12020;51.384;6.908;2023-02-01T17:14:58;8.20;99.90
23685;DHT22;12020;51.384;6.908;2023-02-01T17:17:44;8.20;99.90
23685;DHT22;12020;51.384;6.908;2023-02-01T17:20:30;8.20;99.90
23685;DHT22;12020;51.384;6.908;2023-02-01T17:22:59;8.20;99.90
23685;DHT22;12020;51.384;6.908;2023-02-01T17:25:28;8.20;99.90
23685;DHT22;12020;51.384;6.908;2023-02-01T17:27:57;8.20;99.90
23685;DHT22;12020;51.384;6.908;2023-02-01T17:30:34;8.20;99.90
23685;DHT22;12020;51.384;6.908;2023-02-01T17:33:04;8.30;99.90
23685;DHT22;12020;51.384;6.908;2023-02-01T17:35:38;8.30;99.90
23685;DHT22;12020;51.384;6.908;2023-02-01T17:38:12;8.30;99.90
23685;DHT22;12020;51.384;6.908;2023-02-01T17:40:37;8.30;99.90
23685;DHT22;12020;51.384;6.908;2023-02-01T17:43:03;8.20;99.90
23685;DHT22;12020;51.384;6.908;2023-02-01T17:45:39;8.20;99.90
23685;DHT22;12020;51.384;6.908;2023-02-01T17:48:23;8.20;99.90
23685;DHT22;12020;51.384;6.908;2023-02-01T17:50:50;8.20;99.90
23685;DHT22;12020;51.384;6.908;2023-02-01T17:53:29;8.20;99.90
23685;DHT22;12020;51.384;6.908;2023-02-01T17:55:59;8.20;99.90
23685;DHT22;12020;51.384;6.908;2023-02-01T17:58:36;8.20;99.90
23685;DHT22;12020;51.384;6.908;2023-02-01T18:01:04;8.20;99.90
23685;DHT22;12020;51.384;6.908;2023-02-01T18:03:30;8.20;99.90
23685;DHT22;12020;51.384;6.908;2023-02-01T18:06:13;8.10;99.90
23685;DHT22;12020;51.384;6.908;2023-02-01T18:08:54;8.20;99.90
23685;DHT22;12020;51.384;6.908;2023-02-01T18:11:24;8.20;99.90
23685;DHT22;12020;51.384;6.908;2023-02-01T18:13:52;8.10;99.90
23685;DHT22;12020;51.384;6.908;2023-02-01T18:16:23;8.20;99.90
23685;DHT22;12020;51.384;6.908;2023-02-01T18:18:50;8.10;99.90
23685;DHT22;12020;51.384;6.908;2023-02-01T18:21:18;8.20;99.90
23685;DHT22;12020;51.384;6.908;2023-02-01T18:23:55;8.20;99.90
23685;DHT22;12020;51.384;6.908;2023-02-01T18:26:35;8.20;99.90
23685;DHT22;12020;51.384;6.908;2023-02-01T18:29:10;8.20;99.90
23685;DHT22;12020;51.384;6.908;2023-02-01T18:31:43;8.20;99.90
23685;DHT22;12020;51.384;6.908;2023-02-01T18:34:11;8.20;99.90
23685;DHT22;12020;51.384;6.908;2023-02-01T18:36:43;8.30;99.90
23685;DHT22;12020;51.384;6.908;2023-02-01T18:39:11;8.30;99.90
23685;DHT22;12020;51.384;6.908;2023-02-01T18:41:39;8.20;99.90
23685;DHT22;12020;51.384;6.908;2023-02-01T18:44:13;8.20;99.90
23685;DHT22;12020;51.384;6.908;2023-02-01T18:46:41;8.20;99.90
23685;DHT22;12020;51.384;6.908;2023-02-01T18:49:08;8.20;99.90
23685;DHT22;12020;51.384;6.908;2023-02-01T18:51:34;8.20;99.90
23685;DHT22;12020;51.384;6.908;2023-02-01T18:54:00;8.20;99.90
23685;DHT22;12020;51.384;6.908;2023-02-01T18:56:26;8.30;99.90